Terminal Aerodrome Forecast
Issued by NWS Cleveland, OH

Home | Current Version | Previous Version | Text Only | Print | Product List | Glossary On
Versions: 1 2 3 4 5 6 7 8 9 10 11 12 13 14 15 16
000
FTUS41 KCLE 072340
TAFTOL
TAF
KTOL 072340Z 0800/0824 31009KT P6SM SCT015 OVC035
     FM080600 02006KT 6SM BR BKN100 OVC250
     FM081500 05008KT P6SM SCT050 BKN200
     FM082200 08006KT P6SM OVC050=

USA.gov is the U.S. government's official web portal to all federal, state and local government web resources and services.